Time;durP1;ratioP1;P1;durP2;ratioP2;P2;SDS_P1;SDS_P2;PMS_P1;PMS_P2;Temp;Humidity;BMP_temperature;BMP_pressure;BME280_temperature;BME280_humidity;BME280_pressure;Samples;Min_cycle;Max_cycle;Signal;HPM_P1;HPM_P2
2022/12/25 00:01:58;;;;;;;14.40;3.95;;;6.70;99.90;;;;;;5032085;28;20013;-66
2022/12/25 00:04:23;;;;;;;18.80;5.53;;;6.70;99.90;;;;;;5029451;28;20175;-65
2022/12/25 00:06:49;;;;;;;23.30;5.38;;;6.70;99.90;;;;;;5031837;28;20025;-65
2022/12/25 00:09:14;;;;;;;23.60;4.75;;;6.80;99.90;;;;;;5031944;28;20111;-66
2022/12/25 00:11:40;;;;;;;24.38;4.90;;;6.80;99.90;;;;;;5031910;28;20033;-65
2022/12/25 00:14:06;;;;;;;19.65;4.85;;;6.90;99.90;;;;;;5023662;28;20032;-65
2022/12/25 00:16:31;;;;;;;20.40;4.57;;;6.90;99.90;;;;;;5030844;28;20028;-66
2022/12/25 00:18:57;;;;;;;18.80;4.90;;;7.00;99.90;;;;;;5030736;28;20491;-65
2022/12/25 00:21:23;;;;;;;19.90;5.43;;;7.10;99.90;;;;;;5030382;28;20522;-66
2022/12/25 00:23:57;;;;;;;10.80;3.83;;;7.10;99.90;;;;;;5030037;28;20045;-66
2022/12/25 00:26:23;;;;;;;19.30;4.40;;;7.20;99.90;;;;;;5031885;28;20029;-69
2022/12/25 00:28:53;;;;;;;17.77;4.07;;;7.20;99.90;;;;;;5031744;28;20506;-65
2022/12/25 00:31:20;;;;;;;17.15;4.25;;;7.20;99.90;;;;;;5031367;28;20029;-65
2022/12/25 00:33:47;;;;;;;21.25;5.65;;;7.20;99.90;;;;;;5030515;28;20029;-64
2022/12/25 00:36:15;;;;;;;12.85;4.00;;;7.20;99.90;;;;;;5030291;28;20030;-65
2022/12/25 00:38:41;;;;;;;11.32;4.10;;;7.20;99.90;;;;;;5031346;28;20014;-65
2022/12/25 00:41:10;;;;;;;21.02;4.70;;;7.30;99.90;;;;;;5031170;28;20021;-65
2022/12/25 00:43:36;;;;;;;11.50;3.92;;;7.30;99.90;;;;;;5026697;28;20025;-64
2022/12/25 00:46:04;;;;;;;15.85;4.15;;;7.30;99.90;;;;;;5026353;28;20026;-66
2022/12/25 00:48:30;;;;;;;14.82;4.72;;;7.30;99.90;;;;;;5031604;28;20029;-65
2022/12/25 00:50:58;;;;;;;17.95;3.65;;;7.30;99.90;;;;;;5029839;28;20036;-66
2022/12/25 00:53:25;;;;;;;13.30;3.63;;;7.30;99.90;;;;;;5027851;28;20033;-65
2022/12/25 00:56:02;;;;;;;18.55;3.83;;;7.30;99.90;;;;;;5030958;28;20483;-66
2022/12/25 00:58:30;;;;;;;13.15;3.85;;;7.30;99.90;;;;;;5028158;28;20049;-66
2022/12/25 01:00:56;;;;;;;15.57;3.90;;;7.40;99.90;;;;;;5021898;28;20475;-65
2022/12/25 01:03:23;;;;;;;16.63;3.75;;;7.40;99.90;;;;;;5024491;28;20457;-65
2022/12/25 01:06:01;;;;;;;24.08;4.65;;;7.50;99.90;;;;;;5030995;28;20491;-66
2022/12/25 01:08:29;;;;;;;11.20;3.38;;;7.50;99.90;;;;;;5028010;28;20030;-65
2022/12/25 01:10:56;;;;;;;17.88;3.88;;;7.50;99.90;;;;;;5025172;28;20025;-65
2022/12/25 01:13:22;;;;;;;12.90;4.00;;;7.50;99.90;;;;;;5030905;28;20475;-66
2022/12/25 01:15:48;;;;;;;11.75;3.63;;;7.60;99.90;;;;;;5012086;28;20028;-65
2022/12/25 01:18:14;;;;;;;15.00;3.53;;;7.60;99.90;;;;;;5030144;28;20113;-66
2022/12/25 01:20:39;;;;;;;10.15;3.53;;;7.60;99.90;;;;;;5030639;28;20113;-66
2022/12/25 01:23:05;;;;;;;9.48;3.38;;;7.60;99.90;;;;;;5030848;28;20029;-65
2022/12/25 01:25:30;;;;;;;13.10;4.70;;;7.60;99.90;;;;;;5030674;28;20043;-67
2022/12/25 01:27:56;;;;;;;21.40;4.38;;;7.60;99.90;;;;;;5029752;28;20033;-66
2022/12/25 01:30:21;;;;;;;11.63;3.83;;;7.70;99.90;;;;;;5011580;28;20659;-65
2022/12/25 01:32:47;;;;;;;13.50;2.97;;;7.70;99.90;;;;;;5030575;28;20021;-66
2022/12/25 01:35:13;;;;;;;17.02;3.40;;;7.70;99.90;;;;;;5030608;28;20112;-66
2022/12/25 01:37:38;;;;;;;16.00;2.80;;;7.70;99.90;;;;;;5027942;28;20067;-66
2022/12/25 01:40:05;;;;;;;11.63;3.40;;;7.70;99.90;;;;;;5022078;28;20420;-65
2022/12/25 01:42:30;;;;;;;12.38;3.58;;;7.80;99.90;;;;;;5027566;28;20391;-66
2022/12/25 01:45:36;;;;;;;9.05;2.83;;;7.80;99.90;;;;;;5029285;28;20021;-65
2022/12/25 01:48:05;;;;;;;13.45;3.70;;;7.80;99.90;;;;;;5024706;28;20083;-66
2022/12/25 01:50:32;;;;;;;11.70;3.38;;;7.80;99.90;;;;;;5029362;28;20686;-65
2022/12/25 01:52:57;;;;;;;19.67;2.97;;;7.80;99.90;;;;;;5030540;28;20104;-66
2022/12/25 01:55:24;;;;;;;7.85;3.03;;;7.80;99.90;;;;;;5030473;28;20129;-65
2022/12/25 01:57:50;;;;;;;7.60;2.58;;;7.90;99.90;;;;;;5030844;28;20092;-66
2022/12/25 02:00:16;;;;;;;14.65;2.70;;;7.90;99.90;;;;;;5027519;28;20456;-65
2022/12/25 02:02:44;;;;;;;16.67;3.00;;;8.00;99.90;;;;;;5029189;28;20045;-66
2022/12/25 02:05:39;;;;;;;11.55;3.33;;;8.00;99.90;;;;;;5028096;28;20037;-66
2022/12/25 02:08:10;;;;;;;7.00;2.42;;;8.00;99.90;;;;;;5013439;28;20037;-65
2022/12/25 02:10:37;;;;;;;11.77;3.45;;;8.00;99.90;;;;;;5030199;28;20025;-66
2022/12/25 02:13:03;;;;;;;17.73;3.47;;;8.00;99.90;;;;;;5029296;28;20026;-66
2022/12/25 02:15:39;;;;;;;13.63;3.03;;;8.00;99.90;;;;;;5021991;28;20125;-66
2022/12/25 02:18:18;;;;;;;17.80;4.53;;;8.00;99.90;;;;;;5029030;28;20036;-65
2022/12/25 02:20:52;;;;;;;9.27;3.15;;;8.10;99.90;;;;;;5022768;28;20037;-65
2022/12/25 02:23:54;;;;;;;14.90;3.28;;;8.10;99.90;;;;;;5027370;28;20112;-66
2022/12/25 02:26:32;;;;;;;9.13;2.67;;;8.10;99.90;;;;;;5023943;28;20034;-66
2022/12/25 02:29:23;;;;;;;11.30;3.33;;;8.10;99.90;;;;;;5028839;28;20060;-65
2022/12/25 02:31:54;;;;;;;19.15;3.47;;;8.20;99.90;;;;;;5015267;28;20033;-66
2022/12/25 02:34:27;;;;;;;15.48;3.08;;;8.20;99.90;;;;;;5029156;28;20033;-66
2022/12/25 02:37:22;;;;;;;15.70;2.78;;;8.20;99.90;;;;;;5030012;28;20084;-66
2022/12/25 02:40:06;;;;;;;8.77;3.03;;;8.20;99.90;;;;;;5024890;28;20022;-66
2022/12/25 03:07:37;;;;;;;17.38;3.50;;;8.40;99.90;;;;;;5033157;28;20036;-65
2022/12/25 03:13:14;;;;;;;9.82;3.83;;;8.50;99.90;;;;;;5013316;28;20037;-66
2022/12/25 03:18:27;;;;;;;15.90;3.45;;;8.50;99.90;;;;;;5032304;28;20072;-66
2022/12/25 03:29:09;;;;;;;18.00;3.40;;;8.50;99.90;;;;;;5023377;28;20414;-65
2022/12/25 03:31:51;;;;;;;9.48;3.05;;;8.50;99.90;;;;;;5028039;28;20029;-65
2022/12/25 04:36:15;;;;;;;15.90;3.30;;;8.60;99.90;;;;;;5030761;28;20044;-65
2022/12/25 04:38:41;;;;;;;10.23;2.83;;;8.60;99.90;;;;;;5029569;28;20427;-64
2022/12/25 04:41:09;;;;;;;4.85;2.25;;;8.70;99.90;;;;;;5031356;28;20033;-66
2022/12/25 04:43:35;;;;;;;18.23;2.80;;;8.70;99.90;;;;;;5031462;28;20032;-65
2022/12/25 04:46:01;;;;;;;11.85;2.38;;;8.70;99.90;;;;;;5031496;28;20030;-66
2022/12/25 04:48:29;;;;;;;11.15;2.58;;;8.70;99.90;;;;;;5031247;28;20075;-66
2022/12/25 04:50:55;;;;;;;12.45;3.17;;;8.70;99.90;;;;;;5028553;28;20437;-66
2022/12/25 04:53:20;;;;;;;9.48;2.50;;;8.70;99.90;;;;;;5031071;28;20047;-65
2022/12/25 04:55:46;;;;;;;17.80;3.40;;;8.70;99.90;;;;;;5031239;28;20041;-64
2022/12/25 04:58:12;;;;;;;9.30;2.45;;;8.70;99.90;;;;;;5030105;28;20024;-64
2022/12/25 05:00:37;;;;;;;14.00;2.60;;;8.70;99.90;;;;;;5022574;28;20487;-63
2022/12/25 05:03:03;;;;;;;9.25;2.75;;;8.70;99.90;;;;;;5030069;28;20030;-64
2022/12/25 05:05:28;;;;;;;13.50;2.70;;;8.70;99.90;;;;;;5029852;28;20029;-65
2022/12/25 05:07:55;;;;;;;10.75;2.85;;;8.70;99.90;;;;;;5030975;28;20026;-65
2022/12/25 05:10:21;;;;;;;14.15;2.78;;;8.70;99.90;;;;;;5021570;28;20026;-65
2022/12/25 05:12:47;;;;;;;14.88;2.90;;;8.70;99.90;;;;;;5030952;28;20044;-63
2022/12/25 05:15:12;;;;;;;12.45;3.10;;;8.70;99.90;;;;;;5031066;28;20030;-63
2022/12/25 05:17:38;;;;;;;14.20;2.95;;;8.70;99.90;;;;;;5029690;28;20032;-64
2022/12/25 05:20:05;;;;;;;17.02;3.10;;;8.70;99.90;;;;;;5029869;28;20111;-64
2022/12/25 05:22:30;;;;;;;21.13;3.35;;;8.70;99.90;;;;;;5030747;28;20025;-64
2022/12/25 05:24:56;;;;;;;12.30;2.97;;;8.70;99.90;;;;;;5031157;28;20030;-64
2022/12/25 05:27:21;;;;;;;12.07;2.47;;;8.70;99.90;;;;;;5030871;28;20029;-64
2022/12/25 05:29:47;;;;;;;8.20;2.22;;;8.70;99.90;;;;;;5021248;28;20034;-64
2022/12/25 05:32:12;;;;;;;16.95;2.38;;;8.60;99.90;;;;;;5029501;28;20697;-64
2022/12/25 05:34:38;;;;;;;7.88;3.13;;;8.60;99.90;;;;;;5029915;28;20017;-63
2022/12/25 05:37:04;;;;;;;11.00;2.17;;;8.60;99.90;;;;;;5030523;28;20029;-65
2022/12/25 05:39:29;;;;;;;11.98;2.08;;;8.60;99.90;;;;;;5021418;28;20057;-63
2022/12/25 05:41:55;;;;;;;11.32;2.25;;;8.60;99.90;;;;;;5030613;28;20022;-64
2022/12/25 05:44:20;;;;;;;8.93;2.22;;;8.60;99.90;;;;;;5030479;28;20026;-64
2022/12/25 05:46:46;;;;;;;8.95;2.05;;;8.60;99.90;;;;;;5029568;28;20032;-65
2022/12/25 05:49:12;;;;;;;17.65;2.97;;;8.60;99.90;;;;;;5029638;28;20473;-65
2022/12/25 05:51:37;;;;;;;13.73;3.53;;;8.60;99.90;;;;;;5030254;28;20028;-65
2022/12/25 05:54:03;;;;;;;10.25;2.55;;;8.60;99.90;;;;;;5030492;28;20187;-64
2022/12/25 05:56:29;;;;;;;13.25;2.90;;;8.60;99.90;;;;;;5030632;28;20551;-65
2022/12/25 05:58:54;;;;;;;10.90;2.72;;;8.70;99.90;;;;;;5030442;28;20036;-64
2022/12/25 06:01:23;;;;;;;11.77;2.78;;;8.70;99.90;;;;;;5027730;28;20083;-64
2022/12/25 06:03:49;;;;;;;12.32;2.45;;;8.70;99.90;;;;;;5030085;28;20064;-65
2022/12/25 06:06:14;;;;;;;7.47;2.28;;;8.70;99.90;;;;;;5030634;28;20021;-64
2022/12/25 06:08:40;;;;;;;10.88;2.53;;;8.70;99.90;;;;;;5030448;28;20022;-65
2022/12/25 06:11:07;;;;;;;22.67;2.88;;;8.70;99.90;;;;;;5030227;28;20032;-64
2022/12/25 06:13:34;;;;;;;12.00;2.80;;;8.70;99.90;;;;;;5031877;28;20039;-65
2022/12/25 06:16:06;;;;;;;9.30;3.25;;;8.70;99.90;;;;;;5032011;28;20030;-65
2022/12/25 06:18:35;;;;;;;11.48;2.85;;;8.80;99.90;;;;;;5034019;28;20052;-64
2022/12/25 06:21:05;;;;;;;6.20;2.60;;;8.80;99.90;;;;;;5033906;28;20013;-65
2022/12/25 06:23:30;;;;;;;8.65;2.80;;;8.80;99.90;;;;;;5034025;28;20176;-64
2022/12/25 06:25:56;;;;;;;11.13;3.45;;;8.80;99.90;;;;;;5034158;28;20065;-65
2022/12/25 06:28:21;;;;;;;9.45;2.40;;;8.80;99.90;;;;;;5032944;28;20087;-64
2022/12/25 06:30:47;;;;;;;13.40;2.78;;;8.80;99.90;;;;;;5033465;28;20025;-64
2022/12/25 06:33:12;;;;;;;12.27;2.30;;;8.80;99.90;;;;;;5028132;28;20033;-64
2022/12/25 06:35:39;;;;;;;11.80;2.30;;;8.80;99.90;;;;;;5019721;28;20057;-64
2022/12/25 06:38:04;;;;;;;4.43;1.95;;;8.80;99.90;;;;;;5015811;28;20475;-65
2022/12/25 06:40:30;;;;;;;8.77;2.42;;;8.80;99.90;;;;;;5033570;28;20033;-64
2022/12/25 06:42:55;;;;;;;10.73;2.70;;;8.80;99.90;;;;;;5032528;28;20021;-65
2022/12/25 06:45:21;;;;;;;9.50;2.40;;;8.90;99.90;;;;;;5033581;28;20017;-65
2022/12/25 06:47:47;;;;;;;10.75;2.75;;;9.00;99.90;;;;;;5033716;28;20478;-65
2022/12/25 06:50:12;;;;;;;8.85;3.00;;;9.00;99.90;;;;;;5023816;28;20173;-64
2022/12/25 06:52:38;;;;;;;11.68;2.78;;;9.10;99.90;;;;;;5033264;28;20049;-64
2022/12/25 06:55:04;;;;;;;12.88;2.97;;;9.10;99.90;;;;;;5033471;28;20508;-65
2022/12/25 06:57:29;;;;;;;18.95;4.50;;;9.10;99.90;;;;;;5032179;28;20029;-65
2022/12/25 06:59:55;;;;;;;13.02;3.05;;;9.20;99.90;;;;;;5031606;28;20029;-65
2022/12/25 07:02:22;;;;;;;10.88;3.25;;;9.20;99.90;;;;;;5033342;28;20032;-65
2022/12/25 07:04:48;;;;;;;8.68;2.70;;;9.10;99.90;;;;;;5033024;28;20018;-65
2022/12/25 07:07:14;;;;;;;12.00;3.47;;;9.10;99.90;;;;;;5033184;28;20025;-64
2022/12/25 07:09:41;;;;;;;11.25;3.10;;;9.10;99.90;;;;;;5033025;28;20475;-65
2022/12/25 07:12:22;;;;;;;8.75;3.47;;;9.10;99.90;;;;;;5029536;28;20033;-64
2022/12/25 07:14:48;;;;;;;14.40;4.28;;;9.10;99.90;;;;;;5026199;28;20103;-65
2022/12/25 07:17:18;;;;;;;10.02;3.80;;;9.10;99.90;;;;;;5032918;28;20053;-64
2022/12/25 07:19:47;;;;;;;10.95;3.72;;;9.10;99.90;;;;;;5032762;28;20041;-63
2022/12/25 07:22:14;;;;;;;10.90;3.20;;;9.10;99.90;;;;;;5033102;28;20029;-65
2022/12/25 07:24:40;;;;;;;9.60;3.08;;;9.20;99.90;;;;;;5031128;28;20037;-65
2022/12/25 07:27:07;;;;;;;13.15;3.45;;;9.10;99.90;;;;;;5031917;28;20100;-65
2022/12/25 07:29:32;;;;;;;7.93;3.38;;;9.10;99.90;;;;;;5032407;28;20044;-66
2022/12/25 07:31:58;;;;;;;14.40;2.83;;;9.20;99.90;;;;;;5032714;28;20026;-64
2022/12/25 07:34:24;;;;;;;9.88;3.83;;;9.10;99.90;;;;;;5031813;28;20087;-64
2022/12/25 07:36:49;;;;;;;9.90;3.00;;;9.10;99.90;;;;;;5032456;28;20026;-65
2022/12/25 07:39:15;;;;;;;8.07;3.42;;;9.10;99.90;;;;;;5032700;28;20028;-64
2022/12/25 07:41:42;;;;;;;9.70;2.88;;;9.10;99.90;;;;;;5014633;28;20697;-65
2022/12/25 07:44:07;;;;;;;6.63;3.17;;;9.00;99.90;;;;;;5031227;28;20029;-63
2022/12/25 07:46:33;;;;;;;7.75;3.53;;;9.00;99.90;;;;;;5024094;28;20426;-64
2022/12/25 07:48:59;;;;;;;7.30;2.88;;;9.00;99.90;;;;;;5031430;28;20033;-65
2022/12/25 07:51:25;;;;;;;7.03;3.80;;;9.00;99.90;;;;;;5032160;28;20057;-65
2022/12/25 07:53:51;;;;;;;12.70;3.75;;;9.00;99.90;;;;;;5032154;28;20061;-65
2022/12/25 07:56:18;;;;;;;9.85;3.13;;;9.00;99.90;;;;;;5032325;28;20684;-64
2022/12/25 07:58:45;;;;;;;7.53;3.47;;;9.00;99.90;;;;;;5032115;28;20112;-64
2022/12/25 08:01:15;;;;;;;7.40;3.42;;;9.00;99.90;;;;;;5030179;28;20061;-65
2022/12/25 08:03:41;;;;;;;16.40;4.38;;;9.00;99.90;;;;;;5022660;28;20029;-65
2022/12/25 08:06:08;;;;;;;7.25;2.85;;;9.10;99.90;;;;;;5032030;28;20021;-66
2022/12/25 08:08:35;;;;;;;6.60;3.15;;;9.10;99.90;;;;;;5016289;28;20030;-65
2022/12/25 08:11:01;;;;;;;8.52;2.92;;;9.10;99.90;;;;;;5013814;28;20033;-65
2022/12/25 08:13:31;;;;;;;7.95;2.85;;;9.20;99.90;;;;;;5031940;28;20406;-65
2022/12/25 08:15:58;;;;;;;9.32;3.22;;;9.20;99.90;;;;;;5030700;28;20030;-63
2022/12/25 08:18:24;;;;;;;11.48;2.97;;;9.20;99.90;;;;;;5025067;28;20108;-65
2022/12/25 08:20:49;;;;;;;9.50;3.10;;;9.10;99.90;;;;;;5031755;28;20444;-65
2022/12/25 08:23:15;;;;;;;10.23;4.65;;;9.20;99.90;;;;;;5031784;28;20036;-65
2022/12/25 08:25:40;;;;;;;28.60;12.60;;;9.20;99.90;;;;;;5031782;28;20128;-64
2022/12/25 08:28:06;;;;;;;12.80;4.50;;;9.20;99.90;;;;;;5014156;28;20022;-65
2022/12/25 08:30:31;;;;;;;12.30;5.40;;;9.20;99.90;;;;;;5030074;28;20025;-64
2022/12/25 08:32:57;;;;;;;9.60;4.38;;;9.20;99.90;;;;;;5030301;28;20025;-65
2022/12/25 08:35:23;;;;;;;8.15;3.22;;;9.30;99.90;;;;;;5031697;28;20035;-64
2022/12/25 08:37:48;;;;;;;11.48;3.35;;;9.30;99.90;;;;;;5031530;28;20165;-65
2022/12/25 08:40:14;;;;;;;8.40;2.58;;;9.30;99.90;;;;;;5031359;28;20108;-65
2022/12/25 08:42:39;;;;;;;8.98;3.45;;;9.30;99.90;;;;;;5025329;28;20035;-64
2022/12/25 08:45:05;;;;;;;3.72;2.63;;;9.30;99.90;;;;;;5030732;28;20053;-65
2022/12/25 08:47:31;;;;;;;8.48;2.30;;;9.30;99.90;;;;;;5031373;28;20037;-65
2022/12/25 08:49:56;;;;;;;9.75;2.38;;;9.40;99.90;;;;;;5031185;28;20033;-65
2022/12/25 08:52:22;;;;;;;11.32;3.47;;;9.30;99.90;;;;;;5020743;28;20036;-65
2022/12/25 08:54:48;;;;;;;4.22;2.38;;;9.40;99.90;;;;;;5030971;28;20057;-65
2022/12/25 08:57:13;;;;;;;8.55;2.92;;;9.40;99.90;;;;;;5030243;28;20478;-66
2022/12/25 08:59:39;;;;;;;12.00;3.40;;;9.40;99.90;;;;;;5029344;28;20109;-65
2022/12/25 09:02:05;;;;;;;7.82;3.05;;;9.50;99.90;;;;;;5030957;28;20052;-65
2022/12/25 09:04:30;;;;;;;5.28;2.40;;;9.50;99.90;;;;;;5026265;28;20017;-64
2022/12/25 09:06:56;;;;;;;4.60;2.40;;;9.50;99.90;;;;;;5030627;28;20503;-64
2022/12/25 09:09:26;;;;;;;4.57;2.40;;;9.50;99.90;;;;;;5030982;28;20049;-65
2022/12/25 09:11:51;;;;;;;6.13;2.45;;;9.50;99.90;;;;;;5003895;28;20099;-65
2022/12/25 09:14:17;;;;;;;4.90;2.08;;;9.50;99.90;;;;;;5030860;28;20487;-64
2022/12/25 09:16:43;;;;;;;11.77;2.80;;;9.50;99.90;;;;;;5029923;28;20055;-65
2022/12/25 09:19:08;;;;;;;5.13;2.40;;;9.50;99.90;;;;;;5019504;28;20053;-65
2022/12/25 09:21:35;;;;;;;8.10;2.88;;;9.50;99.90;;;;;;5029224;28;20021;-65
2022/12/25 09:24:02;;;;;;;7.32;2.97;;;9.50;99.90;;;;;;5030825;28;20491;-65
2022/12/25 09:26:27;;;;;;;6.03;2.83;;;9.50;99.90;;;;;;5029839;28;20030;-65
2022/12/25 09:28:53;;;;;;;7.05;2.65;;;9.50;99.90;;;;;;5030627;28;20031;-65
2022/12/25 09:31:20;;;;;;;4.78;2.95;;;9.60;99.90;;;;;;5030528;28;20033;-65
2022/12/25 09:33:46;;;;;;;3.45;2.30;;;9.60;99.90;;;;;;5028645;28;20039;-66
2022/12/25 09:36:12;;;;;;;5.63;2.38;;;9.70;99.90;;;;;;5030549;28;20487;-63
2022/12/25 09:38:38;;;;;;;8.55;2.70;;;9.70;99.90;;;;;;5011010;28;20064;-64
2022/12/25 09:41:29;;;;;;;7.97;2.30;;;9.70;99.90;;;;;;5010760;28;20029;-64
2022/12/25 09:44:22;;;;;;;5.63;2.65;;;9.70;99.90;;;;;;5005954;28;20531;-64
2022/12/25 09:46:53;;;;;;;3.50;1.80;;;9.70;99.90;;;;;;5001782;28;20533;-64
2022/12/25 09:50:08;;;;;;;6.50;2.85;;;9.60;99.90;;;;;;5032210;28;20056;-65
2022/12/25 09:52:46;;;;;;;4.95;2.22;;;9.60;99.90;;;;;;4954078;29;20066;-64
2022/12/25 09:55:14;;;;;;;6.10;2.97;;;9.60;99.90;;;;;;4954216;29;20035;-64
2022/12/25 09:57:39;;;;;;;11.68;2.50;;;9.60;99.90;;;;;;4988412;28;20132;-63
2022/12/25 10:00:30;;;;;;;4.82;2.35;;;9.60;99.90;;;;;;5034307;28;20113;-65
2022/12/25 10:03:10;;;;;;;8.98;2.50;;;9.50;99.90;;;;;;5024394;28;20039;-65
2022/12/25 10:05:55;;;;;;;5.63;2.83;;;9.50;99.90;;;;;;5034333;28;20631;-65
2022/12/25 10:08:40;;;;;;;9.80;2.75;;;9.50;99.90;;;;;;5016662;28;20029;-65
2022/12/25 10:11:29;;;;;;;;;;;9.40;99.90;;;;;;5034393;28;20036;-65
2022/12/25 10:14:05;;;;;;;8.02;2.65;;;9.50;99.90;;;;;;5034174;28;19984;-64
2022/12/25 10:16:58;;;;;;;11.88;5.57;;;9.50;99.90;;;;;;5034346;28;20105;-66
2022/12/25 10:20:02;;;;;;;8.95;3.75;;;9.50;99.90;;;;;;5029629;28;20322;-64
2022/12/25 10:22:36;;;;;;;10.25;6.35;;;9.40;99.90;;;;;;5033318;28;20048;-65
2022/12/25 10:25:03;;;;;;;;;;;9.40;99.90;;;;;;5034397;28;20060;-65
2022/12/25 10:27:40;;;;;;;14.20;5.00;;;9.40;99.90;;;;;;5034016;28;19958;-65
2022/12/25 10:30:16;;;;;;;13.05;5.10;;;9.40;99.90;;;;;;5033747;28;20453;-66
2022/12/25 10:32:44;;;;;;;9.82;4.53;;;9.40;99.90;;;;;;5031257;28;20041;-64
2022/12/25 10:35:14;;;;;;;8.98;2.78;;;9.40;99.90;;;;;;5032987;28;20036;-65
2022/12/25 10:37:42;;;;;;;9.63;3.03;;;9.40;99.90;;;;;;5025915;28;20021;-65
2022/12/25 10:40:26;;;;;;;10.13;3.90;;;9.50;99.90;;;;;;5015569;28;20054;-65
2022/12/25 10:42:58;;;;;;;9.43;3.58;;;9.40;99.90;;;;;;5033728;28;20518;-64
2022/12/25 10:45:23;;;;;;;6.80;3.90;;;9.40;99.90;;;;;;5032610;28;20475;-65
2022/12/25 10:47:49;;;;;;;7.47;3.63;;;9.50;99.90;;;;;;5026803;28;20026;-65
2022/12/25 10:50:22;;;;;;;6.85;3.80;;;9.50;99.90;;;;;;5030203;28;20083;-65
2022/12/25 10:53:04;;;;;;;8.13;2.70;;;9.60;99.90;;;;;;5033350;28;20029;-63
2022/12/25 10:58:19;;;;;;;11.00;3.60;;;9.60;99.90;;;;;;5041886;28;20049;-66
2022/12/25 11:00:52;;;;;;;9.45;2.78;;;9.60;99.90;;;;;;5043780;28;20022;-67
2022/12/25 11:03:22;;;;;;;7.68;2.92;;;9.60;99.90;;;;;;5041628;28;20028;-68
2022/12/25 11:05:50;;;;;;;10.27;4.15;;;9.60;99.90;;;;;;5038183;28;20032;-68
2022/12/25 11:08:25;;;;;;;6.88;2.22;;;9.60;99.90;;;;;;5050055;28;20043;-68
2022/12/25 11:11:04;;;;;;;11.63;3.22;;;9.60;99.90;;;;;;5052681;28;20021;-68
2022/12/25 11:13:33;;;;;;;10.57;2.92;;;9.60;99.90;;;;;;5053075;28;20036;-66
2022/12/25 11:16:09;;;;;;;8.63;3.10;;;9.60;99.90;;;;;;5052969;28;20032;-67
2022/12/25 11:18:48;;;;;;;11.10;3.67;;;9.60;99.90;;;;;;5050476;28;20092;-66
2022/12/25 11:21:22;;;;;;;10.82;2.85;;;9.60;99.90;;;;;;5048437;28;20031;-67
2022/12/25 11:23:49;;;;;;;;;;;9.60;99.90;;;;;;5053422;28;20108;-67
2022/12/25 11:26:16;;;;;;;6.82;3.20;;;9.60;99.90;;;;;;5052880;28;19904;-66
2022/12/25 11:28:43;;;;;;;6.38;2.90;;;9.70;99.90;;;;;;5052984;28;20051;-68
2022/12/25 11:31:14;;;;;;;11.40;3.22;;;9.70;99.90;;;;;;5052453;28;20025;-66
2022/12/25 11:34:02;;;;;;;6.43;3.33;;;9.80;99.90;;;;;;5043956;28;20395;-67
2022/12/25 11:36:42;;;;;;;7.13;3.25;;;9.90;99.90;;;;;;5051011;28;20029;-66
2022/12/25 11:39:34;;;;;;;10.80;3.17;;;9.90;99.90;;;;;;5052529;28;20110;-67
2022/12/25 11:42:03;;;;;;;5.72;3.25;;;10.00;99.90;;;;;;5050301;28;20025;-67
2022/12/25 11:44:53;;;;;;;6.22;3.30;;;10.00;99.90;;;;;;5050779;28;20367;-68
2022/12/25 11:47:36;;;;;;;13.77;3.03;;;10.20;99.90;;;;;;5052255;28;20025;-68
2022/12/25 11:50:31;;;;;;;4.80;2.65;;;10.30;99.90;;;;;;5051081;28;20029;-68
2022/12/25 11:53:05;;;;;;;11.88;3.53;;;10.30;99.90;;;;;;5031908;28;20021;-67
2022/12/25 11:55:56;;;;;;;8.57;3.45;;;10.30;99.90;;;;;;5051191;28;20490;-68
2022/12/25 11:58:36;;;;;;;10.90;3.08;;;10.30;99.90;;;;;;5052053;28;20033;-66
2022/12/25 12:01:06;;;;;;;9.63;3.92;;;10.30;99.90;;;;;;5052041;28;20430;-68
2022/12/25 12:03:37;;;;;;;11.85;4.13;;;10.30;99.90;;;;;;5050641;28;20169;-68
2022/12/25 12:06:33;;;;;;;12.05;4.57;;;10.40;99.90;;;;;;5051996;28;20086;-68
2022/12/25 12:09:31;;;;;;;11.98;4.15;;;10.40;99.90;;;;;;5028169;28;20036;-67
2022/12/25 12:12:15;;;;;;;7.78;3.90;;;10.40;99.90;;;;;;4992987;28;20042;-68
2022/12/25 12:14:41;;;;;;;;;;;10.30;99.90;;;;;;5032543;28;20164;-67
2022/12/25 12:17:14;;;;;;;10.68;4.63;;;10.30;99.90;;;;;;5031823;28;20054;-68
2022/12/25 12:19:40;;;;;;;10.00;4.68;;;10.40;99.90;;;;;;5047334;28;20029;-68
2022/12/25 12:22:06;;;;;;;11.45;4.93;;;10.40;99.90;;;;;;5040866;28;20048;-67
2022/12/25 12:24:39;;;;;;;7.82;4.07;;;10.40;99.90;;;;;;5042692;28;20394;-67
2022/12/25 12:27:26;;;;;;;14.23;5.72;;;10.40;99.90;;;;;;5051558;28;20398;-69
2022/12/25 12:29:57;;;;;;;8.95;4.55;;;10.40;99.90;;;;;;5051248;28;20039;-67
2022/12/25 12:32:35;;;;;;;6.45;3.83;;;10.40;99.90;;;;;;5051562;28;20036;-67
2022/12/25 12:35:20;;;;;;;7.47;4.30;;;10.40;99.90;;;;;;5050434;28;20025;-67
2022/12/25 12:37:51;;;;;;;11.45;5.55;;;10.40;99.90;;;;;;5042961;28;20405;-68
2022/12/25 12:40:36;;;;;;;19.75;8.93;;;10.30;99.90;;;;;;5048049;28;20375;-67
2022/12/25 12:43:04;;;;;;;24.52;8.75;;;10.30;99.90;;;;;;5051632;28;20056;-68
2022/12/25 12:45:37;;;;;;;26.27;11.18;;;10.30;99.90;;;;;;5051384;28;20523;-67
2022/12/25 12:48:21;;;;;;;17.55;5.82;;;10.30;99.90;;;;;;5050325;28;20092;-67
2022/12/25 12:50:47;;;;;;;16.55;8.77;;;10.30;99.90;;;;;;5050820;28;20032;-67
2022/12/25 12:53:15;;;;;;;13.65;5.63;;;10.30;99.90;;;;;;5049593;28;20041;-67
2022/12/25 12:55:41;;;;;;;23.73;9.00;;;10.30;99.90;;;;;;5051112;28;20100;-68
2022/12/25 12:58:06;;;;;;;16.08;7.80;;;10.30;99.90;;;;;;5049569;28;20153;-66
2022/12/25 13:00:56;;;;;;;16.90;5.93;;;10.30;99.90;;;;;;5051059;28;20433;-67
2022/12/25 13:03:37;;;;;;;8.65;4.63;;;10.30;99.90;;;;;;5049650;28;20048;-65
2022/12/25 13:06:27;;;;;;;11.65;4.18;;;10.30;99.90;;;;;;5050828;28;20090;-66
2022/12/25 13:09:26;;;;;;;7.30;4.30;;;10.30;99.90;;;;;;4983838;28;20057;-68
2022/12/25 13:11:52;;;;;;;6.38;4.13;;;10.30;99.90;;;;;;5030865;28;20025;-65
2022/12/25 13:14:23;;;;;;;8.18;4.25;;;10.30;99.90;;;;;;5048295;28;20021;-67
2022/12/25 13:16:52;;;;;;;11.63;4.43;;;10.30;99.90;;;;;;5049773;28;20044;-69
2022/12/25 13:19:24;;;;;;;7.53;4.28;;;10.30;99.90;;;;;;5050372;28;20479;-65
2022/12/25 13:21:55;;;;;;;10.75;4.80;;;10.30;99.90;;;;;;5050719;28;20096;-63
2022/12/25 13:24:26;;;;;;;8.82;4.15;;;10.30;99.90;;;;;;5049190;28;20025;-68
2022/12/25 13:26:52;;;;;;;8.23;3.42;;;10.20;99.90;;;;;;5050733;28;20113;-68
2022/12/25 13:29:37;;;;;;;7.68;3.83;;;10.20;99.90;;;;;;5050535;28;20108;-67
2022/12/25 13:32:05;;;;;;;8.43;4.60;;;10.30;99.90;;;;;;5048488;28;20114;-69
2022/12/25 13:34:40;;;;;;;8.27;4.13;;;10.30;99.90;;;;;;5050261;28;20104;-64
2022/12/25 13:37:27;;;;;;;8.80;4.95;;;10.40;99.90;;;;;;5050457;28;20021;-68
2022/12/25 13:39:54;;;;;;;12.88;5.60;;;10.30;99.90;;;;;;5047008;28;20491;-65
2022/12/25 13:42:26;;;;;;;10.05;4.43;;;10.40;99.90;;;;;;5050416;28;20060;-65
2022/12/25 13:45:01;;;;;;;7.88;4.13;;;10.40;99.90;;;;;;5049446;28;20028;-65
2022/12/25 13:47:30;;;;;;;12.63;4.28;;;10.30;99.90;;;;;;5048022;28;20029;-65
2022/12/25 13:49:58;;;;;;;6.80;4.13;;;10.30;99.90;;;;;;5049924;28;20029;-65
2022/12/25 13:52:32;;;;;;;6.60;4.68;;;10.30;99.90;;;;;;5050428;28;20522;-68
2022/12/25 13:55:09;;;;;;;7.43;3.95;;;10.30;99.90;;;;;;5049382;28;20036;-67
2022/12/25 13:57:41;;;;;;;9.77;4.25;;;10.30;99.90;;;;;;5050059;28;20032;-69
2022/12/25 14:00:20;;;;;;;9.32;5.05;;;10.30;99.90;;;;;;5049056;28;20040;-67
2022/12/25 14:02:46;;;;;;;6.45;3.80;;;10.30;99.90;;;;;;5042699;28;20032;-66
2022/12/25 14:05:22;;;;;;;9.25;3.60;;;10.30;99.90;;;;;;5050175;28;20497;-67
2022/12/25 14:07:53;;;;;;;9.30;4.05;;;10.30;99.90;;;;;;5048751;28;20033;-67
2022/12/25 14:10:27;;;;;;;5.85;4.00;;;10.30;99.90;;;;;;5049373;28;20036;-69
2022/12/25 14:12:56;;;;;;;11.35;5.78;;;10.30;99.90;;;;;;5050463;28;20033;-68
2022/12/25 14:15:22;;;;;;;9.30;3.88;;;10.30;99.90;;;;;;5049088;28;20040;-65
2022/12/25 14:17:51;;;;;;;8.27;4.00;;;10.40;99.90;;;;;;5047343;28;20029;-65
2022/12/25 14:20:24;;;;;;;5.90;3.63;;;10.40;99.90;;;;;;5043593;28;20029;-68
2022/12/25 14:22:52;;;;;;;10.95;4.13;;;10.40;99.90;;;;;;5050161;28;20024;-65
2022/12/25 14:25:19;;;;;;;6.72;3.47;;;10.30;99.90;;;;;;5050253;28;20028;-68
2022/12/25 14:27:52;;;;;;;5.45;3.67;;;10.40;99.90;;;;;;5050010;28;20025;-66
2022/12/25 14:30:17;;;;;;;10.10;3.92;;;10.40;99.90;;;;;;5049759;28;20112;-69
2022/12/25 14:32:49;;;;;;;10.00;4.07;;;10.30;99.90;;;;;;5050353;28;20147;-66
2022/12/25 14:35:16;;;;;;;7.57;4.10;;;10.30;99.90;;;;;;5049715;28;20073;-64
2022/12/25 14:37:42;;;;;;;7.47;3.40;;;10.40;99.90;;;;;;5053556;28;20554;-68
2022/12/25 14:40:26;;;;;;;5.57;3.70;;;10.40;99.90;;;;;;5053196;28;20029;-63
2022/12/25 14:42:58;;;;;;;9.02;4.63;;;10.40;99.90;;;;;;5053721;28;20402;-65
2022/12/25 14:45:32;;;;;;;5.35;3.55;;;10.40;99.90;;;;;;5053654;28;20032;-68
2022/12/25 14:48:15;;;;;;;11.88;4.13;;;10.40;99.90;;;;;;5052697;28;20507;-68
2022/12/25 14:50:49;;;;;;;10.25;3.72;;;10.40;99.90;;;;;;5047235;28;20726;-67
2022/12/25 14:53:21;;;;;;;5.55;3.70;;;10.40;99.90;;;;;;5053436;28;20215;-65